• Join FlightAware (Why Join?)
  • Login
  • US Flag 
07:33AM EDT


 

Airport Tracker/Info


-or-


 

Live Flight TrackerFlight Track Log ✈ SWA3571 ✈ 09-May-2013 ✈ KDEN - KLAS

Flight Track Log - Related Links

Times and Time Zones

All times are in EDT time to prevent confusion due to time zone crossing. See the SWA3571 flight status page for this flight to view local times or setup timezone preferences in your user account.

Time Position Orientation Groundspeed Altitude Reporting Facility
EDT Latitude Longitude Course Direction KTS MPH feet Rate Location/Type
01:22PM 39.8333 -104.7833 270° West 216 249 7,100  Level Denver TRACON
01:23PM 39.8333 -104.8667 270° West 264 304 9,400 1,860 Climbing Denver TRACON
01:24PM 39.8333 -104.9667 270° West 322 371 10,700 1,920 Climbing Denver TRACON
01:25PM 39.8169 -105.1072 261° West 352 405 13,500 2,400 Climbing Denver Center
01:26PM 39.7867 -105.2453 254° West 369 425 15,900 2,220 Climbing Denver Center
01:27PM 39.7572 -105.3814 254° West 389 448 18,100 2,580 Climbing Denver Center
01:28PM 39.7281 -105.5250 255° West 382 440 21,300 2,160 Climbing Denver Center
01:29PM 39.7003 -105.6567 255° West 381 438 22,600 1,200 Climbing Denver Center
01:30PM 39.6847 -105.8069 262° West 419 482 23,800 1,080 Climbing Denver Center
01:31PM 39.6658 -105.9503 260° West 431 496 24,900 1,260 Climbing Denver Center
01:32PM 39.6475 -106.1117 262° West 449 517 26,500 1,500 Climbing Denver Center
01:33PM 39.6253 -106.3083 262° West 458 527 28,100 1,620 Climbing Denver Center
01:34PM 39.5786 -106.4631 249° West 459 528 29,900 1,560 Climbing Denver Center
01:35PM 39.5322 -106.6069 247° West 452 520 31,400 960 Climbing Denver Center
01:36PM 39.4778 -106.7753 247° West 452 520 32,000 240 Climbing Denver Center
01:37PM 39.4308 -106.9203 247° West 455 524 32,000  Level Denver Center
01:38PM 39.3889 -107.0969 253° West 460 529 32,000  Level Denver Center
01:39PM 39.3503 -107.2489 252° West 463 533 32,000  Level Denver Center
01:40PM 39.3053 -107.4244 252° West 461 531 32,100 720 Climbing Denver Center
01:41PM 39.2597 -107.5736 249° West 463 533 33,500 1,200 Climbing Denver Center
01:42PM 39.2075 -107.7425 248° West 456 525 34,700 960 Climbing Denver Center
01:43PM 39.1625 -107.8872 248° West 454 522 35,500 600 Climbing Denver Center
01:44PM 39.1186 -108.0328 249° West 451 519 36,000 180 Climbing Denver Center
01:46PM 39.0583 -108.2256 248° West 453 521 36,000  Level Denver Center
01:47PM 39.0047 -108.3944 248° West 454 522 36,000  Level Denver Center
01:48PM 38.9594 -108.5403 248° West 457 526 36,000  Level Denver Center
01:49PM 38.9064 -108.7078 248° West 454 522 36,000  Level Denver Center
01:50PM 38.8603 -108.8519 248° West 453 521 36,000  Level Denver Center
01:51PM 38.7989 -109.0450 248° West 456 525 36,000  Level Denver Center
01:52PM 38.7522 -109.1889 247° West 455 524 36,000  Level Denver Center
01:53PM 38.6986 -109.3575 248° West 456 525 36,000  Level Denver Center
01:54PM 38.6517 -109.5011 247° West 457 526 36,000  Level Denver Center
01:55PM 38.5956 -109.6661 247° West 452 520 36,000  Level Denver Center
01:56PM 38.5486 -109.8117 248° West 460 529 36,000  Level Denver Center
01:57PM 38.5017 -109.9542 247° West 456 525 36,000  Level Denver Center
01:58PM 38.4456 -110.1208 247° West 458 527 36,000  Level Denver Center
01:59PM 38.3981 -110.2642 247° West 459 528 36,000 -120 Level Denver Center
02:00PM 38.3403 -110.4303 246° West 459 528 35,800 -600 Descending Denver Center
02:01PM 38.2786 -110.5617 239° Southwest 451 519 34,800 -1,020 Descending Denver Center
02:02PM 38.2086 -110.7158 240° Southwest 450 518 33,700 -1,020 Descending Denver Center
02:03PM 38.1467 -110.8472 239° Southwest 451 519 32,800 -840 Descending Denver Center
02:04PM 38.0792 -110.9936 240° Southwest 453 521 32,000 -420 Descending Denver Center
02:05PM 38.0153 -111.1303 239° Southwest 451 519 32,000  Level Denver Center
02:06PM 37.9511 -111.2692 240° Southwest 456 525 32,000  Level Denver Center
02:08PM 37.8731 -111.4397 240° Southwest 464 534 32,000  Level Salt Lake Center
02:09PM 37.7933 -111.6092 239° Southwest 467 537 32,000  Level Salt Lake Center
02:10PM 37.7244 -111.7528 239° Southwest 474 545 32,000  Level Salt Lake Center
02:11PM 37.6558 -111.8958 239° Southwest 476 548 32,000  Level Salt Lake Center
02:12PM 37.5869 -112.0403 239° Southwest 479 551 32,000  Level Salt Lake Center
02:13PM 37.5300 -112.1542 238° Southwest 476 548 32,000  Level Los Angeles Center
02:14PM 37.4619 -112.2969 239° Southwest 473 544 32,000 -420 Level Los Angeles Center
02:15PM 37.3922 -112.4408 239° Southwest 477 549 31,200 -960 Descending Los Angeles Center
02:16PM 37.3081 -112.6128 238° Southwest 476 548 30,000 -1,020 Descending Los Angeles Center
02:17PM 37.2239 -112.7850 238° Southwest 478 550 28,900 -900 Descending Salt Lake Center
02:18PM 37.1556 -112.9225 238° Southwest 467 537 28,000 -480 Descending Salt Lake Center
02:19PM 37.1017 -113.0303 238° Southwest 458 527 28,000  Level Los Angeles Center
02:20PM 37.0328 -113.1706 238° Southwest 470 541 28,000  Level Los Angeles Center
02:21PM 36.9606 -113.3142 238° Southwest 482 555 28,000  Level Los Angeles Center
02:22PM 36.8883 -113.4594 238° Southwest 489 563 28,000 -600 Level Los Angeles Center
02:23PM 36.8017 -113.6317 238° Southwest 489 563 26,800 -1,740 Descending Los Angeles Center
02:24PM 36.7339 -113.7689 238° Southwest 473 544 24,500 -2,400 Descending Los Angeles Center
02:25PM 36.6683 -113.9000 238° Southwest 451 519 21,900 -2,400 Descending Los Angeles Center
02:26PM 36.6056 -114.0258 238° Southwest 432 497 19,500 -2,280 Descending Los Angeles Center
02:27PM 36.5458 -114.1467 238° Southwest 415 478 17,200 -2,520 Descending Los Angeles Center
02:28PM 36.4886 -114.2842 243° Southwest 403 464 14,400 -2,640 Descending Los Angeles Center
02:29PM 36.4542 -114.3525 238° Southwest 381 438 13,000 -1,800 Descending Los Angeles Center
02:29PM 36.4331 -114.3958 239° Southwest 380 437 12,500 -1,020 Descending Los Angeles Center
02:30PM 36.4081 -114.4564 243° Southwest 349 402 12,000 -540 Descending Los Angeles Center
02:30PM 36.3794 -114.4819 216° Southwest 328 377 12,000 -1,020 Level Los Angeles Center
02:31PM 36.3325 -114.4956 193° South 302 348 11,000 -1,680 Descending Los Angeles Center
02:31PM 36.2992 -114.5031 190° South 293 337 10,300 -1,680 Descending Los Angeles Center
02:32PM 36.2528 -114.5172 194° South 294 338 9,300 -1,680 Descending Los Angeles Center
02:32PM 36.2200 -114.5256 192° South 291 335 8,600 -1,320 Descending Los Angeles Center
02:33PM 36.1817 -114.5575 214° Southwest 284 327 8,000 -600 Descending Los Angeles Center
02:33PM 36.1550 -114.5736 206° Southwest 275 316 8,000  Level Los Angeles Center
02:34PM 36.1283 -114.6181 233° Southwest 250 288 8,000  Level Los Angeles Center
02:34PM 36.1100 -114.6539 238° Southwest 249 287 8,000  Level Los Angeles Center
02:35PM 36.0925 -114.6914 240° Southwest 248 285 8,000  Level Los Angeles Center
02:35PM 36.0747 -114.7278 239° Southwest 248 285 8,000  Level Los Angeles Center
02:36PM 36.0747 -114.7667 270° West 244 281 8,000 -600 Level Los Angeles Center
02:36PM 36.0742 -114.8089 269° West 243 280 7,400 -1,500 Descending Los Angeles Center
02:37PM 36.0733 -114.8497 269° West 234 269 6,500 -1,200 Descending Los Angeles Center
02:38PM 36.0747 -114.8908 272° West 238 274 6,200 -900 Descending Los Angeles Center
02:38PM 36.0725 -114.9244 265° West 210 242 5,600 -1,500 Descending Los Angeles Center
02:39PM 36.0739 -114.9628 273° West 227 261 4,700 -1,500 Descending Los Angeles Center
02:39PM 36.0736 -114.9986 269° West 197 227 4,100 -1,020 Descending Los Angeles Center
02:40PM 36.0744 -115.0281 272° West 209 241 3,700 -1,020 Descending Los Angeles Center
02:40PM 36.0747 -115.0622 271° West 184 212 3,100 -1,080 Descending Los Angeles Center
02:41PM 36.0736 -115.0972 268° West 187 215 2,600 -840 Descending Los Angeles Center
02:41PM 36.0733 -115.1158 269° West 161 185 2,300 -540 Descending Los Angeles Center
02:42PM 36.0736 -115.1469 271° West 165 190 2,100 -300 Descending Los Angeles Center